Magnolia, Delaware
Current Conditions -  °F | °C
As of 7:33 AM on Monday 26 Jan 2015 (Local Time) from KDOV Reporting Station
Light Snow Light Snow  
Wind Chill: 20°   Ceiling: Unl
Heat Index: 32°   Visibility: 6mi
Dew Point: 32°   Wind: 18mph
Humidity: 100%   Direction: 50°NE
Pressure: 29.86"   Gusts: 25mph
Location:  39.07°N, 75.48°W
Report Text: KDOV 261233Z AUTO 05016G22KT 6SM -SN BR FEW013 00/00 A2986 RMK AO2
Loading
Personal Weather Stations






























Interactive Weather Map New forecast layout! Learn more

10-Day Weather Forecast

Advertisements
Track Severe Weather on mobile